Time;durP1;ratioP1;P1;durP2;ratioP2;P2;SDS_P1;SDS_P2;PMS_P1;PMS_P2;Temp;Humidity;BMP_temperature;BMP_pressure;BME280_temperature;BME280_humidity;BME280_pressure;Samples;Min_cycle;Max_cycle;Signal;HPM_P1;HPM_P2
2021/04/22 00:00:21;;;;;;;16.33;10.52;;;;;;;;;;5064917;28;20522;-70
2021/04/22 00:02:47;;;;;;;15.32;10.20;;;;;;;;;;5059707;28;20047;-70
2021/04/22 00:05:22;;;;;;;14.88;10.40;;;;;;;;;;5075890;28;20041;-70
2021/04/22 00:07:48;;;;;;;13.65;10.23;;;;;;;;;;5066103;28;20424;-70
2021/04/22 00:10:14;;;;;;;13.68;10.30;;;;;;;;;;5058395;28;20048;-70
2021/04/22 00:12:40;;;;;;;16.90;12.63;;;;;;;;;;5073152;28;20080;-70
2021/04/22 00:15:16;;;;;;;17.88;12.82;;;;;;;;;;5068052;28;20049;-70
2021/04/22 00:17:43;;;;;;;21.08;13.55;;;;;;;;;;5064514;28;20112;-70
2021/04/22 00:20:10;;;;;;;21.67;14.07;;;;;;;;;;5083654;28;20040;-70
2021/04/22 00:22:36;;;;;;;19.65;14.43;;;;;;;;;;5066578;28;20044;-70
2021/04/22 00:25:03;;;;;;;26.58;17.35;;;;;;;;;;5068426;28;20041;-70
2021/04/22 00:27:29;;;;;;;26.38;18.83;;;;;;;;;;5073608;28;20064;-70
2021/04/22 00:29:55;;;;;;;24.77;17.35;;;;;;;;;;5063062;28;20045;-70
2021/04/22 00:32:21;;;;;;;26.17;17.27;;;;;;;;;;5070929;28;20052;-70
2021/04/22 00:34:47;;;;;;;30.83;18.98;;;;;;;;;;5076161;28;20075;-70
2021/04/22 00:37:13;;;;;;;23.50;16.58;;;;;;;;;;5064545;28;20036;-70
2021/04/22 00:39:39;;;;;;;21.05;15.43;;;;;;;;;;5064078;28;20458;-70
2021/04/22 00:42:05;;;;;;;20.42;15.18;;;;;;;;;;5064547;28;20029;-70
2021/04/22 00:44:32;;;;;;;18.43;14.33;;;;;;;;;;5070479;28;20040;-70
2021/04/22 00:46:58;;;;;;;25.17;14.27;;;;;;;;;;5070205;28;20102;-71
2021/04/22 00:49:25;;;;;;;19.63;14.45;;;;;;;;;;5069674;28;20045;-70
2021/04/22 00:51:52;;;;;;;20.20;14.07;;;;;;;;;;5061852;28;20029;-71
2021/04/22 00:54:18;;;;;;;19.77;13.37;;;;;;;;;;5066406;28;20881;-71
2021/04/22 00:56:45;;;;;;;19.63;14.03;;;;;;;;;;5069744;28;20032;-71
2021/04/22 00:59:11;;;;;;;20.08;14.52;;;;;;;;;;5073002;28;20408;-71
2021/04/22 01:01:37;;;;;;;19.00;13.88;;;;;;;;;;5066206;28;20052;-70
2021/04/22 01:04:04;;;;;;;21.65;15.82;;;;;;;;;;5067692;28;20033;-71
2021/04/22 01:06:30;;;;;;;20.20;14.70;;;;;;;;;;5070849;28;20059;-70
2021/04/22 01:08:56;;;;;;;21.25;14.45;;;;;;;;;;5068051;28;20062;-70
2021/04/22 01:11:29;;;;;;;19.70;14.65;;;;;;;;;;5065391;28;20045;-70
2021/04/22 01:13:55;;;;;;;23.67;14.68;;;;;;;;;;5074122;28;20048;-70
2021/04/22 01:16:21;;;;;;;20.77;13.88;;;;;;;;;;5067425;28;20047;-70
2021/04/22 01:18:47;;;;;;;17.55;14.18;;;;;;;;;;5063977;28;20052;-70
2021/04/22 01:21:25;;;;;;;19.80;15.13;;;;;;;;;;5074252;28;20033;-71
2021/04/22 01:23:51;;;;;;;21.40;15.45;;;;;;;;;;5063979;28;20392;-72
2021/04/22 01:26:19;;;;;;;21.77;15.18;;;;;;;;;;5071166;28;20412;-70
2021/04/22 01:28:46;;;;;;;23.80;15.60;;;;;;;;;;5062044;28;20096;-70
2021/04/22 01:31:12;;;;;;;21.85;13.70;;;;;;;;;;5071179;28;20083;-70
2021/04/22 01:33:38;;;;;;;19.63;14.00;;;;;;;;;;5071147;28;20444;-71
2021/04/22 01:36:07;;;;;;;18.50;13.32;;;;;;;;;;5077564;28;20380;-70
2021/04/22 01:38:34;;;;;;;18.37;13.53;;;;;;;;;;5067989;28;20045;-70
2021/04/22 01:41:00;;;;;;;20.05;14.93;;;;;;;;;;5064418;28;20277;-70
2021/04/22 01:43:27;;;;;;;18.35;13.32;;;;;;;;;;5057610;28;20051;-71
2021/04/22 01:45:53;;;;;;;20.88;13.35;;;;;;;;;;5076603;28;20459;-70
2021/04/22 01:48:19;;;;;;;18.00;13.63;;;;;;;;;;5064066;28;20235;-71
2021/04/22 01:50:46;;;;;;;19.63;13.65;;;;;;;;;;5065688;28;20055;-70
2021/04/22 01:53:12;;;;;;;20.00;14.88;;;;;;;;;;5070171;28;20060;-70
2021/04/22 01:55:42;;;;;;;21.92;15.30;;;;;;;;;;5071749;28;20047;-70
2021/04/22 01:58:10;;;;;;;18.40;12.77;;;;;;;;;;5064282;28;20354;-70
2021/04/22 02:00:37;;;;;;;19.67;13.77;;;;;;;;;;5080862;28;20044;-70
2021/04/22 02:03:04;;;;;;;21.30;16.30;;;;;;;;;;5074181;28;20037;-71
2021/04/22 02:05:30;;;;;;;23.60;15.40;;;;;;;;;;5068529;28;20044;-70
2021/04/22 02:07:56;;;;;;;22.77;14.45;;;;;;;;;;5068585;28;20056;-70
2021/04/22 02:10:22;;;;;;;17.73;13.48;;;;;;;;;;5065440;28;20056;-71
2021/04/22 02:12:49;;;;;;;18.98;14.30;;;;;;;;;;5069735;28;20044;-70
2021/04/22 02:15:23;;;;;;;22.85;13.98;;;;;;;;;;5068813;28;20051;-70
2021/04/22 02:17:49;;;;;;;24.33;16.13;;;;;;;;;;5072787;28;20044;-70
2021/04/22 02:20:16;;;;;;;19.38;14.93;;;;;;;;;;5066112;28;20046;-70
2021/04/22 02:22:42;;;;;;;19.48;14.05;;;;;;;;;;5071764;28;20112;-70
2021/04/22 02:25:09;;;;;;;27.20;15.70;;;;;;;;;;5066685;28;20455;-70
2021/04/22 02:27:35;;;;;;;22.52;15.50;;;;;;;;;;5061361;28;20045;-70
2021/04/22 02:30:04;;;;;;;23.15;16.75;;;;;;;;;;5062891;28;20049;-70
2021/04/22 02:32:30;;;;;;;23.80;15.25;;;;;;;;;;5079392;28;20107;-71
2021/04/22 02:34:57;;;;;;;23.33;15.10;;;;;;;;;;5072265;28;20040;-70
2021/04/22 02:37:23;;;;;;;27.67;18.65;;;;;;;;;;5074871;28;20047;-70
2021/04/22 02:39:49;;;;;;;24.42;17.20;;;;;;;;;;5067020;28;20476;-71
2021/04/22 02:42:15;;;;;;;22.38;16.15;;;;;;;;;;5065147;28;20044;-70
2021/04/22 02:44:41;;;;;;;25.70;17.92;;;;;;;;;;5063354;28;20419;-71
2021/04/22 02:47:07;;;;;;;27.05;18.50;;;;;;;;;;5083323;28;20036;-71
2021/04/22 02:49:34;;;;;;;26.23;19.00;;;;;;;;;;5069376;28;20413;-70
2021/04/22 02:52:00;;;;;;;28.80;21.02;;;;;;;;;;5065125;28;20319;-71
2021/04/22 02:54:26;;;;;;;27.45;19.90;;;;;;;;;;5075044;28;20040;-70
2021/04/22 02:56:52;;;;;;;25.35;18.05;;;;;;;;;;5073230;28;20047;-70
2021/04/22 02:59:18;;;;;;;27.85;18.85;;;;;;;;;;5063089;28;20127;-70
2021/04/22 03:01:44;;;;;;;27.70;20.33;;;;;;;;;;5078068;28;20094;-70
2021/04/22 03:04:10;;;;;;;31.65;20.80;;;;;;;;;;5075903;28;20480;-70
2021/04/22 03:06:36;;;;;;;31.00;22.25;;;;;;;;;;5065746;28;20041;-70
2021/04/22 03:09:02;;;;;;;30.58;20.35;;;;;;;;;;5069723;28;20520;-70
2021/04/22 03:11:28;;;;;;;24.63;17.88;;;;;;;;;;5068710;28;20545;-70
2021/04/22 03:13:55;;;;;;;26.90;18.27;;;;;;;;;;5067244;28;20048;-70
2021/04/22 03:16:22;;;;;;;23.02;16.25;;;;;;;;;;5074961;28;20279;-70
2021/04/22 03:18:49;;;;;;;28.05;17.73;;;;;;;;;;5071775;28;20496;-70
2021/04/22 03:21:15;;;;;;;27.30;18.90;;;;;;;;;;5073112;28;20044;-70
2021/04/22 03:23:41;;;;;;;27.55;16.77;;;;;;;;;;5070651;28;20079;-71
2021/04/22 03:26:07;;;;;;;32.78;17.63;;;;;;;;;;5073643;28;20040;-70
2021/04/22 03:28:33;;;;;;;25.83;17.83;;;;;;;;;;5072009;28;20090;-70
2021/04/22 03:30:59;;;;;;;24.33;18.27;;;;;;;;;;5077636;28;20068;-70
2021/04/22 03:33:25;;;;;;;29.00;19.02;;;;;;;;;;5075236;28;20048;-70
2021/04/22 03:35:51;;;;;;;29.20;19.85;;;;;;;;;;5070612;28;20053;-71
2021/04/22 03:38:17;;;;;;;29.38;20.92;;;;;;;;;;5071344;28;20135;-70
2021/04/22 03:40:43;;;;;;;33.28;21.23;;;;;;;;;;5075392;28;20096;-70
2021/04/22 03:43:09;;;;;;;30.48;21.17;;;;;;;;;;5071065;28;20127;-70
2021/04/22 03:45:35;;;;;;;28.35;19.48;;;;;;;;;;5069166;28;20087;-70
2021/04/22 03:48:01;;;;;;;28.48;20.77;;;;;;;;;;5075397;28;20132;-70
2021/04/22 03:50:27;;;;;;;28.55;19.33;;;;;;;;;;5067541;28;20037;-70
2021/04/22 03:52:53;;;;;;;28.42;19.33;;;;;;;;;;5072707;28;20071;-70
2021/04/22 03:55:20;;;;;;;26.50;18.67;;;;;;;;;;5069665;28;20089;-70
2021/04/22 03:57:46;;;;;;;28.65;19.05;;;;;;;;;;5076817;28;20048;-70
2021/04/22 04:00:14;;;;;;;28.67;18.80;;;;;;;;;;5062291;28;20124;-70
2021/04/22 04:02:40;;;;;;;25.95;18.30;;;;;;;;;;5063698;28;20055;-70
2021/04/22 04:05:07;;;;;;;26.10;19.33;;;;;;;;;;5066768;28;20099;-70
2021/04/22 04:07:33;;;;;;;27.02;18.35;;;;;;;;;;5070359;28;20055;-70
2021/04/22 04:09:59;;;;;;;26.48;17.88;;;;;;;;;;5071527;28;20447;-70
2021/04/22 04:12:25;;;;;;;25.10;18.60;;;;;;;;;;5076543;28;20044;-70
2021/04/22 04:14:51;;;;;;;26.05;19.13;;;;;;;;;;5071952;28;20037;-70
2021/04/22 04:17:17;;;;;;;28.75;20.65;;;;;;;;;;5061094;28;20067;-70
2021/04/22 04:19:43;;;;;;;27.10;19.17;;;;;;;;;;5073050;28;20052;-69
2021/04/22 04:22:09;;;;;;;28.95;19.45;;;;;;;;;;5069878;28;20627;-70
2021/04/22 04:24:35;;;;;;;27.00;19.90;;;;;;;;;;5062382;28;20116;-70
2021/04/22 04:27:01;;;;;;;30.23;20.08;;;;;;;;;;5073445;28;20047;-70
2021/04/22 04:29:27;;;;;;;29.23;20.55;;;;;;;;;;5072303;28;20131;-70
2021/04/22 04:31:53;;;;;;;26.10;18.63;;;;;;;;;;5065218;28;20044;-70
2021/04/22 04:34:19;;;;;;;27.25;19.42;;;;;;;;;;5063272;28;20442;-69
2021/04/22 04:36:46;;;;;;;27.13;19.08;;;;;;;;;;5068844;28;20048;-71
2021/04/22 04:39:13;;;;;;;31.48;19.95;;;;;;;;;;5066648;28;20052;-70
2021/04/22 04:41:40;;;;;;;28.05;21.13;;;;;;;;;;5071319;28;20075;-70
2021/04/22 04:44:06;;;;;;;28.80;19.80;;;;;;;;;;5070766;28;20052;-70
2021/04/22 04:46:32;;;;;;;25.67;19.20;;;;;;;;;;5066291;28;20036;-71
2021/04/22 04:48:58;;;;;;;31.77;19.90;;;;;;;;;;5073051;28;20048;-71
2021/04/22 04:51:24;;;;;;;29.23;19.50;;;;;;;;;;5074088;28;20041;-70
2021/04/22 04:53:51;;;;;;;26.23;18.98;;;;;;;;;;5067340;28;20051;-71
2021/04/22 04:56:18;;;;;;;28.58;20.95;;;;;;;;;;5074093;28;20510;-70
2021/04/22 04:58:45;;;;;;;24.77;18.85;;;;;;;;;;5071265;28;20067;-70
2021/04/22 05:01:12;;;;;;;30.80;22.05;;;;;;;;;;5072241;28;20668;-70
2021/04/22 05:03:38;;;;;;;28.73;19.92;;;;;;;;;;5067349;28;20041;-71
2021/04/22 05:06:04;;;;;;;28.25;20.10;;;;;;;;;;5064149;28;20036;-70
2021/04/22 05:08:31;;;;;;;28.08;20.02;;;;;;;;;;5066791;28;20055;-69
2021/04/22 05:10:57;;;;;;;27.20;18.38;;;;;;;;;;5066529;28;20045;-71
2021/04/22 05:13:26;;;;;;;25.95;17.70;;;;;;;;;;5066717;28;20143;-70
2021/04/22 05:15:52;;;;;;;24.90;18.02;;;;;;;;;;5067750;28;20058;-70
2021/04/22 05:18:18;;;;;;;23.70;16.02;;;;;;;;;;5067309;28;20043;-70
2021/04/22 05:20:44;;;;;;;19.80;15.07;;;;;;;;;;5067491;28;20094;-69
2021/04/22 05:23:13;;;;;;;18.02;12.77;;;;;;;;;;5065572;28;20037;-69
2021/04/22 05:25:39;;;;;;;18.30;13.13;;;;;;;;;;5064142;28;20113;-69
2021/04/22 05:28:05;;;;;;;17.90;13.10;;;;;;;;;;5064919;28;20047;-68
2021/04/22 05:30:31;;;;;;;22.13;14.43;;;;;;;;;;5058761;28;20432;-69
2021/04/22 05:32:57;;;;;;;17.48;13.38;;;;;;;;;;5063265;28;20119;-69
2021/04/22 05:35:24;;;;;;;18.42;13.52;;;;;;;;;;5072785;28;20482;-68
2021/04/22 05:37:52;;;;;;;18.60;13.02;;;;;;;;;;5066135;28;20451;-69
2021/04/22 05:40:18;;;;;;;18.15;14.05;;;;;;;;;;5069776;28;20041;-68
2021/04/22 05:42:45;;;;;;;20.70;13.18;;;;;;;;;;5071875;28;20036;-70
2021/04/22 05:45:12;;;;;;;16.63;12.10;;;;;;;;;;5063041;28;20041;-68
2021/04/22 05:47:38;;;;;;;16.27;12.68;;;;;;;;;;5065868;28;20040;-67
2021/04/22 05:50:05;;;;;;;18.85;12.18;;;;;;;;;;5070051;28;20028;-69
2021/04/22 05:52:30;;;;;;;18.30;12.80;;;;;;;;;;5064944;28;20173;-67
2021/04/22 05:54:57;;;;;;;16.35;12.82;;;;;;;;;;5069135;28;20069;-69
2021/04/22 05:57:23;;;;;;;18.75;13.02;;;;;;;;;;5065796;28;20035;-67
2021/04/22 05:59:49;;;;;;;16.27;12.35;;;;;;;;;;5073249;28;20097;-68
2021/04/22 06:02:19;;;;;;;18.98;12.02;;;;;;;;;;5069131;28;20115;-67
2021/04/22 06:04:45;;;;;;;18.13;12.30;;;;;;;;;;5073679;28;20043;-67
2021/04/22 06:07:11;;;;;;;16.77;12.23;;;;;;;;;;5071154;28;20459;-67
2021/04/22 06:09:37;;;;;;;15.43;11.63;;;;;;;;;;5070327;28;20044;-68
2021/04/22 06:12:05;;;;;;;16.05;12.32;;;;;;;;;;5069198;28;20044;-67
2021/04/22 06:14:31;;;;;;;16.65;12.05;;;;;;;;;;5067263;28;20036;-68
2021/04/22 06:16:57;;;;;;;17.27;11.93;;;;;;;;;;5062068;28;20062;-67
2021/04/22 06:19:23;;;;;;;16.98;12.07;;;;;;;;;;5067637;28;20037;-68
2021/04/22 06:21:49;;;;;;;15.63;11.50;;;;;;;;;;5068918;28;20037;-67
2021/04/22 06:24:15;;;;;;;15.63;11.90;;;;;;;;;;5069196;28;20063;-69
2021/04/22 06:26:43;;;;;;;14.07;11.45;;;;;;;;;;5076193;28;20376;-69
2021/04/22 06:29:10;;;;;;;;;;;;;;;;;;5068035;28;20067;-69
2021/04/22 06:31:36;;;;;;;17.17;12.52;;;;;;;;;;5071162;28;19995;-69
2021/04/22 06:34:03;;;;;;;15.65;12.05;;;;;;;;;;5070498;28;20044;-69
2021/04/22 06:36:30;;;;;;;15.70;11.43;;;;;;;;;;5068024;28;20036;-69
2021/04/22 06:38:56;;;;;;;15.30;12.27;;;;;;;;;;5062280;28;20045;-68
2021/04/22 06:41:22;;;;;;;14.48;12.05;;;;;;;;;;5074002;28;20043;-68
2021/04/22 06:43:48;;;;;;;15.15;11.48;;;;;;;;;;5066888;28;20037;-68
2021/04/22 06:46:15;;;;;;;17.60;12.00;;;;;;;;;;5064822;28;20060;-68
2021/04/22 06:48:42;;;;;;;21.90;12.45;;;;;;;;;;5070058;28;20123;-68
2021/04/22 06:51:08;;;;;;;16.42;12.05;;;;;;;;;;5064924;28;20055;-68
2021/04/22 06:53:35;;;;;;;17.38;12.98;;;;;;;;;;5071372;28;20037;-68
2021/04/22 06:56:01;;;;;;;14.13;11.52;;;;;;;;;;5068972;28;20428;-68
2021/04/22 06:58:27;;;;;;;16.10;11.90;;;;;;;;;;5059935;28;20044;-67
2021/04/22 07:00:53;;;;;;;19.15;12.40;;;;;;;;;;5059421;28;20041;-67
2021/04/22 07:03:20;;;;;;;18.23;12.90;;;;;;;;;;5069749;28;20040;-67
2021/04/22 07:05:45;;;;;;;17.30;12.80;;;;;;;;;;5063894;28;20059;-68
2021/04/22 07:08:11;;;;;;;20.85;13.13;;;;;;;;;;5067561;28;20455;-68
2021/04/22 07:10:38;;;;;;;16.00;13.27;;;;;;;;;;5070447;28;20052;-68
2021/04/22 07:13:05;;;;;;;17.20;13.13;;;;;;;;;;5072737;28;20040;-67
2021/04/22 07:15:31;;;;;;;23.35;13.48;;;;;;;;;;5071275;28;20060;-68
2021/04/22 07:17:58;;;;;;;19.58;13.35;;;;;;;;;;5066289;28;20049;-67
2021/04/22 07:20:25;;;;;;;15.77;13.20;;;;;;;;;;5058805;28;20077;-67
2021/04/22 07:22:53;;;;;;;14.82;12.23;;;;;;;;;;5071708;28;20063;-67
2021/04/22 07:25:20;;;;;;;17.38;13.38;;;;;;;;;;5068151;28;20048;-70
2021/04/22 07:27:47;;;;;;;;;;;;;;;;;;5060611;28;20470;-67
2021/04/22 07:30:13;;;;;;;16.15;13.00;;;;;;;;;;5067532;28;19921;-69
2021/04/22 07:32:39;;;;;;;17.02;13.48;;;;;;;;;;5069303;28;20044;-68
2021/04/22 07:35:07;;;;;;;15.68;12.88;;;;;;;;;;5073179;28;20092;-69
2021/04/22 07:37:33;;;;;;;15.00;12.80;;;;;;;;;;5068529;28;20078;-68
2021/04/22 07:39:59;;;;;;;18.55;13.55;;;;;;;;;;5064745;28;20581;-68
2021/04/22 07:42:26;;;;;;;15.85;13.15;;;;;;;;;;5072399;28;20041;-69
2021/04/22 07:44:52;;;;;;;16.77;13.98;;;;;;;;;;5073534;28;20068;-69
2021/04/22 07:47:18;;;;;;;15.63;13.35;;;;;;;;;;5067486;28;20116;-67
2021/04/22 07:49:51;;;;;;;18.13;13.45;;;;;;;;;;5060482;28;20117;-69
2021/04/22 07:52:17;;;;;;;19.02;13.85;;;;;;;;;;5071870;28;20132;-68
2021/04/22 07:54:43;;;;;;;15.55;12.18;;;;;;;;;;5071653;28;20059;-69
2021/04/22 07:57:09;;;;;;;15.80;12.35;;;;;;;;;;5067951;28;20128;-69
2021/04/22 07:59:35;;;;;;;16.55;13.15;;;;;;;;;;5062765;28;20083;-69
2021/04/22 08:02:02;;;;;;;16.17;12.77;;;;;;;;;;5065809;28;20067;-71
2021/04/22 08:04:29;;;;;;;14.52;12.75;;;;;;;;;;5068614;28;20051;-68
2021/04/22 08:06:56;;;;;;;14.55;12.10;;;;;;;;;;5069042;28;20132;-67
2021/04/22 08:09:22;;;;;;;14.55;12.35;;;;;;;;;;5063277;28;20051;-67
2021/04/22 08:11:48;;;;;;;15.60;12.23;;;;;;;;;;5055405;28;20516;-67
2021/04/22 08:14:14;;;;;;;18.08;12.25;;;;;;;;;;5065181;28;20040;-67
2021/04/22 08:16:40;;;;;;;15.80;13.38;;;;;;;;;;5064416;28;20048;-67
2021/04/22 08:19:07;;;;;;;15.77;12.90;;;;;;;;;;5058844;28;20040;-67
2021/04/22 08:21:33;;;;;;;15.95;13.15;;;;;;;;;;5063927;28;20052;-68
2021/04/22 08:23:59;;;;;;;16.25;13.52;;;;;;;;;;5058012;28;20044;-67
2021/04/22 08:26:25;;;;;;;18.70;13.10;;;;;;;;;;5062380;28;20040;-67
2021/04/22 08:28:52;;;;;;;16.63;12.80;;;;;;;;;;5066958;28;20040;-67
2021/04/22 08:31:24;;;;;;;16.65;12.95;;;;;;;;;;5065356;28;20117;-67
2021/04/22 08:33:55;;;;;;;17.30;13.52;;;;;;;;;;5064782;28;20041;-67
2021/04/22 08:36:21;;;;;;;16.33;13.15;;;;;;;;;;5070976;28;20728;-67
2021/04/22 08:38:48;;;;;;;15.43;13.20;;;;;;;;;;5068970;28;20041;-68
2021/04/22 08:41:14;;;;;;;15.90;12.80;;;;;;;;;;5067410;28;20040;-68
2021/04/22 08:43:40;;;;;;;16.98;13.43;;;;;;;;;;5061483;28;20074;-69
2021/04/22 08:46:07;;;;;;;17.95;13.73;;;;;;;;;;5073026;28;20079;-69
2021/04/22 08:48:34;;;;;;;16.63;14.77;;;;;;;;;;5069011;28;20859;-68
2021/04/22 08:51:00;;;;;;;22.55;13.60;;;;;;;;;;5066711;28;20050;-69
2021/04/22 08:53:29;;;;;;;17.52;12.90;;;;;;;;;;5061383;28;20048;-68
2021/04/22 08:55:55;;;;;;;15.82;13.40;;;;;;;;;;5066342;28;20051;-68
2021/04/22 08:58:22;;;;;;;20.35;13.73;;;;;;;;;;5068795;28;20041;-69
2021/04/22 09:00:53;;;;;;;16.50;13.63;;;;;;;;;;5069395;28;20045;-68
2021/04/22 09:03:19;;;;;;;16.15;14.10;;;;;;;;;;5067769;28;20416;-69
2021/04/22 09:05:46;;;;;;;17.80;14.07;;;;;;;;;;5064542;28;20054;-69
2021/04/22 09:08:12;;;;;;;15.73;13.35;;;;;;;;;;5067188;28;20076;-68
2021/04/22 09:10:38;;;;;;;17.13;13.40;;;;;;;;;;5075580;28;20084;-69
2021/04/22 09:13:06;;;;;;;16.15;12.98;;;;;;;;;;5071649;28;20536;-69
2021/04/22 09:15:33;;;;;;;18.48;13.07;;;;;;;;;;5079292;28;20039;-68
2021/04/22 09:18:04;;;;;;;14.20;12.70;;;;;;;;;;5066381;28;20490;-68
2021/04/22 09:20:38;;;;;;;12.43;11.07;;;;;;;;;;5066317;28;20139;-69
2021/04/22 09:23:18;;;;;;;14.18;12.77;;;;;;;;;;5068503;28;20115;-69
2021/04/22 09:25:45;;;;;;;13.73;12.20;;;;;;;;;;5075148;28;20033;-69
2021/04/22 09:28:11;;;;;;;14.20;12.68;;;;;;;;;;5071325;28;20044;-69
2021/04/22 09:30:40;;;;;;;14.33;12.83;;;;;;;;;;5065287;28;20062;-68
2021/04/22 09:33:06;;;;;;;16.73;13.20;;;;;;;;;;5068806;28;20043;-69
2021/04/22 09:35:32;;;;;;;20.10;13.13;;;;;;;;;;5071556;28;20138;-68
2021/04/22 09:37:59;;;;;;;19.58;14.55;;;;;;;;;;5064334;28;20041;-69
2021/04/22 09:40:31;;;;;;;15.77;13.93;;;;;;;;;;5076806;28;20040;-68
2021/04/22 09:42:59;;;;;;;21.35;14.90;;;;;;;;;;5065286;28;20051;-69
2021/04/22 09:45:26;;;;;;;18.20;15.02;;;;;;;;;;5072259;28;20043;-68
2021/04/22 09:48:17;;;;;;;19.65;15.13;;;;;;;;;;5071586;28;20041;-68
2021/04/22 09:50:44;;;;;;;18.80;14.57;;;;;;;;;;5070578;28;20036;-69
2021/04/22 09:53:12;;;;;;;19.63;15.77;;;;;;;;;;5065559;28;20036;-68
2021/04/22 09:55:38;;;;;;;21.38;15.13;;;;;;;;;;5066202;28;20049;-68
2021/04/22 09:58:04;;;;;;;19.25;14.63;;;;;;;;;;5073250;28;20079;-68
2021/04/22 10:00:32;;;;;;;16.05;13.40;;;;;;;;;;5068202;28;20037;-68
2021/04/22 10:03:04;;;;;;;18.60;13.55;;;;;;;;;;5064202;28;20045;-68
2021/04/22 10:05:31;;;;;;;20.60;14.23;;;;;;;;;;5071368;28;20102;-69
2021/04/22 10:08:08;;;;;;;17.40;13.02;;;;;;;;;;5063424;28;20345;-69
2021/04/22 10:10:35;;;;;;;18.05;14.38;;;;;;;;;;5068732;28;20063;-57
2021/04/22 10:13:01;;;;;;;;;;;;;;;;;;5068464;28;20045;-57
2021/04/22 10:15:27;;;;;;;16.50;12.45;;;;;;;;;;5069683;28;19924;-60
2021/04/22 10:17:54;;;;;;;14.77;12.87;;;;;;;;;;5067657;28;20051;-60
2021/04/22 10:20:20;;;;;;;;;;;;;;;;;;5072972;28;20055;-57
2021/04/22 10:22:47;;;;;;;14.20;11.93;;;;;;;;;;5065000;28;20003;-59
2021/04/22 10:25:13;;;;;;;;;;;;;;;;;;5067624;28;20036;-59
2021/04/22 10:27:39;;;;;;;15.02;12.25;;;;;;;;;;5072228;28;20398;-57
2021/04/22 10:30:07;;;;;;;15.75;13.38;;;;;;;;;;5067044;28;20041;-60
2021/04/22 10:32:33;;;;;;;15.45;13.80;;;;;;;;;;5066222;28;20504;-57
2021/04/22 10:35:00;;;;;;;18.40;14.73;;;;;;;;;;5068400;28;20048;-59
2021/04/22 10:37:26;;;;;;;19.02;15.20;;;;;;;;;;5069458;28;20048;-60
2021/04/22 10:39:56;;;;;;;19.80;15.63;;;;;;;;;;5069671;28;20047;-58
2021/04/22 10:42:22;;;;;;;19.90;15.95;;;;;;;;;;5062231;28;20441;-64
2021/04/22 10:44:49;;;;;;;19.90;15.63;;;;;;;;;;5066901;28;20392;-59
2021/04/22 10:47:33;;;;;;;23.83;16.52;;;;;;;;;;5065225;28;20112;-59
2021/04/22 10:50:00;;;;;;;20.08;16.05;;;;;;;;;;5067068;28;20078;-57
2021/04/22 10:52:26;;;;;;;20.50;15.07;;;;;;;;;;5069149;28;20037;-68
2021/04/22 10:54:53;;;;;;;18.40;14.50;;;;;;;;;;5064432;28;20390;-68
2021/04/22 10:57:21;;;;;;;20.48;14.68;;;;;;;;;;5060468;28;20140;-68
2021/04/22 10:59:59;;;;;;;13.35;11.95;;;;;;;;;;5064964;28;20048;-68
2021/04/22 11:02:45;;;;;;;13.68;12.27;;;;;;;;;;5066461;28;20041;-68
2021/04/22 11:05:38;;;;;;;13.90;12.57;;;;;;;;;;5069901;28;20036;-68
2021/04/22 11:08:06;;;;;;;13.57;12.32;;;;;;;;;;5065679;28;20053;-69
2021/04/22 11:10:35;;;;;;;15.10;12.48;;;;;;;;;;5063595;28;20047;-69
2021/04/22 11:13:07;;;;;;;15.85;11.93;;;;;;;;;;5065699;28;20115;-69
2021/04/22 11:15:34;;;;;;;15.73;14.00;;;;;;;;;;5064164;28;20047;-69
2021/04/22 11:18:07;;;;;;;15.43;13.95;;;;;;;;;;5069085;28;20040;-68
2021/04/22 11:20:37;;;;;;;15.20;13.52;;;;;;;;;;5061797;28;20056;-69
2021/04/22 11:23:13;;;;;;;14.55;12.38;;;;;;;;;;5070988;28;20036;-69
2021/04/22 11:25:46;;;;;;;15.63;13.07;;;;;;;;;;5070517;28;20043;-68
2021/04/22 11:28:12;;;;;;;16.17;13.27;;;;;;;;;;5072458;28;20483;-68
2021/04/22 11:30:38;;;;;;;15.07;12.15;;;;;;;;;;5065571;28;20111;-70
2021/04/22 11:33:04;;;;;;;16.90;12.60;;;;;;;;;;5072791;28;20123;-69
2021/04/22 11:35:31;;;;;;;18.83;15.25;;;;;;;;;;5067362;28;20056;-67
2021/04/22 11:38:00;;;;;;;16.05;14.38;;;;;;;;;;5070457;28;20044;-67
2021/04/22 11:40:27;;;;;;;14.90;13.18;;;;;;;;;;5066679;28;20052;-66
2021/04/22 11:42:56;;;;;;;15.25;13.32;;;;;;;;;;5076978;28;20588;-66
2021/04/22 11:45:23;;;;;;;15.73;13.98;;;;;;;;;;5086080;28;20048;-68
2021/04/22 11:47:57;;;;;;;20.42;15.60;;;;;;;;;;5065461;28;20048;-68
2021/04/22 11:50:39;;;;;;;17.55;15.40;;;;;;;;;;5065360;28;21121;-68
2021/04/22 11:53:06;;;;;;;19.45;16.60;;;;;;;;;;5066306;28;20148;-68
2021/04/22 11:55:33;;;;;;;21.92;17.48;;;;;;;;;;5061878;28;20041;-69
2021/04/22 11:57:59;;;;;;;19.73;17.40;;;;;;;;;;5062654;28;20059;-69
2021/04/22 12:00:27;;;;;;;32.37;17.60;;;;;;;;;;5068309;28;20044;-69
2021/04/22 12:02:54;;;;;;;19.67;17.67;;;;;;;;;;5066595;28;20051;-69
2021/04/22 12:05:21;;;;;;;18.27;16.35;;;;;;;;;;5061408;28;20096;-69
2021/04/22 12:07:54;;;;;;;22.77;16.48;;;;;;;;;;5068990;28;20037;-68
2021/04/22 12:10:20;;;;;;;17.67;15.63;;;;;;;;;;5064685;28;20051;-69
2021/04/22 12:12:47;;;;;;;20.17;17.35;;;;;;;;;;5064571;28;20076;-69
2021/04/22 12:15:13;;;;;;;;;;;;;;;;;;5069557;28;20086;-69
2021/04/22 12:17:39;;;;;;;18.50;16.30;;;;;;;;;;5065578;28;19924;-69
2021/04/22 12:20:07;;;;;;;23.67;16.45;;;;;;;;;;5064248;28;20489;-69
2021/04/22 12:22:36;;;;;;;22.08;16.85;;;;;;;;;;5064003;28;20045;-68
2021/04/22 12:25:04;;;;;;;22.80;18.55;;;;;;;;;;5060721;28;20497;-68
2021/04/22 12:27:32;;;;;;;22.17;19.83;;;;;;;;;;5065043;28;20048;-68
2021/04/22 12:29:58;;;;;;;22.10;19.85;;;;;;;;;;5061496;28;20094;-69
2021/04/22 12:32:24;;;;;;;25.27;18.45;;;;;;;;;;5065737;28;20040;-68
2021/04/22 12:34:50;;;;;;;21.75;19.42;;;;;;;;;;5062591;28;20048;-68
2021/04/22 12:37:17;;;;;;;23.77;19.17;;;;;;;;;;5068395;28;20052;-69
2021/04/22 12:39:52;;;;;;;24.40;19.65;;;;;;;;;;5066339;28;20033;-68
2021/04/22 12:42:23;;;;;;;21.38;19.17;;;;;;;;;;5048702;28;20381;-68
2021/04/22 12:44:55;;;;;;;22.98;16.52;;;;;;;;;;5052354;28;20047;-69
2021/04/22 12:47:32;;;;;;;24.33;17.55;;;;;;;;;;5072318;28;20036;-68
2021/04/22 12:49:59;;;;;;;19.23;17.02;;;;;;;;;;5071334;28;20117;-68
2021/04/22 12:52:25;;;;;;;22.80;15.73;;;;;;;;;;5062940;28;20136;-68
2021/04/22 12:54:55;;;;;;;15.23;13.73;;;;;;;;;;5069366;28;20393;-70
2021/04/22 12:57:21;;;;;;;16.08;12.98;;;;;;;;;;5089884;28;20282;-69
2021/04/22 12:59:47;;;;;;;18.15;13.02;;;;;;;;;;5071796;28;20131;-69
2021/04/22 13:02:14;;;;;;;22.17;14.27;;;;;;;;;;5071560;28;20047;-69
2021/04/22 13:04:52;;;;;;;16.77;12.80;;;;;;;;;;5066085;28;20032;-69
2021/04/22 13:07:29;;;;;;;17.60;11.37;;;;;;;;;;5066854;28;20032;-69
2021/04/22 13:09:55;;;;;;;12.77;11.48;;;;;;;;;;5066214;28;20313;-67
2021/04/22 13:12:21;;;;;;;15.95;11.15;;;;;;;;;;5064612;28;20037;-67
2021/04/22 13:14:48;;;;;;;14.27;11.00;;;;;;;;;;5067378;28;20404;-68
2021/04/22 13:17:13;;;;;;;17.20;11.40;;;;;;;;;;5059436;28;20066;-68
2021/04/22 13:19:42;;;;;;;13.40;12.00;;;;;;;;;;5070342;28;20422;-68
2021/04/22 13:22:12;;;;;;;13.00;11.60;;;;;;;;;;5064615;28;20057;-70
2021/04/22 13:24:40;;;;;;;12.15;10.85;;;;;;;;;;5063439;28;20432;-68
2021/04/22 13:27:11;;;;;;;14.30;10.05;;;;;;;;;;5071650;28;20089;-68
2021/04/22 13:29:45;;;;;;;20.55;10.63;;;;;;;;;;5069168;28;20040;-61
2021/04/22 13:32:11;;;;;;;16.10;11.15;;;;;;;;;;5062510;28;20054;-69
2021/04/22 13:34:42;;;;;;;12.65;9.90;;;;;;;;;;5067772;28;20081;-62
2021/04/22 13:37:08;;;;;;;13.32;8.93;;;;;;;;;;5065425;28;20131;-56
2021/04/22 13:39:35;;;;;;;20.73;10.75;;;;;;;;;;5064364;28;20072;-59
2021/04/22 13:42:02;;;;;;;11.77;9.50;;;;;;;;;;5059865;28;20083;-57
2021/04/22 13:44:32;;;;;;;11.23;9.85;;;;;;;;;;5066417;28;20032;-59
2021/04/22 13:47:02;;;;;;;12.15;10.70;;;;;;;;;;5061589;28;20042;-58
2021/04/22 13:49:32;;;;;;;13.85;10.20;;;;;;;;;;5059357;28;20408;-62
2021/04/22 13:52:19;;;;;;;10.93;9.40;;;;;;;;;;5056569;28;20048;-61
2021/04/22 13:54:49;;;;;;;10.98;8.90;;;;;;;;;;5062433;28;20049;-62
2021/04/22 13:57:16;;;;;;;13.48;8.77;;;;;;;;;;5066788;28;20496;-60
2021/04/22 13:59:43;;;;;;;14.95;8.82;;;;;;;;;;5069569;28;20115;-61
2021/04/22 14:02:10;;;;;;;13.63;8.23;;;;;;;;;;5066924;28;20032;-62
2021/04/22 14:04:39;;;;;;;8.48;7.53;;;;;;;;;;5064723;28;20051;-61
2021/04/22 14:07:06;;;;;;;12.75;8.02;;;;;;;;;;5069142;28;20120;-61
2021/04/22 14:09:36;;;;;;;12.40;7.57;;;;;;;;;;5078298;28;20773;-62
2021/04/22 14:12:05;;;;;;;8.98;6.78;;;;;;;;;;5066195;28;20433;-61
2021/04/22 14:14:31;;;;;;;11.07;7.15;;;;;;;;;;5070771;28;20131;-61
2021/04/22 14:16:57;;;;;;;;;;;;;;;;;;5062599;28;20128;-59
2021/04/22 14:19:26;;;;;;;9.30;5.80;;;;;;;;;;5064462;28;20373;-58
2021/04/22 14:21:52;;;;;;;9.23;6.15;;;;;;;;;;5068844;28;20063;-61